Time;durP1;ratioP1;P1;durP2;ratioP2;P2;SDS_P1;SDS_P2;PMS_P1;PMS_P2;Temp;Humidity;BMP_temperature;BMP_pressure;BME280_temperature;BME280_humidity;BME280_pressure;Samples;Min_cycle;Max_cycle;Signal;HPM_P1;HPM_P2
2023/01/09 00:02:08;;;;;;;4.78;1.20;;;26.00;99.90;;;;;;5033378;28;20195;-82
2023/01/09 00:04:39;;;;;;;5.25;1.15;;;26.10;99.90;;;;;;5033094;28;20201;-82
2023/01/09 00:07:10;;;;;;;3.33;1.05;;;26.10;99.90;;;;;;5031072;28;20214;-82
2023/01/09 00:09:41;;;;;;;4.45;1.17;;;26.10;99.90;;;;;;5029198;28;20283;-82
2023/01/09 00:12:13;;;;;;;2.03;1.00;;;26.10;99.90;;;;;;5030996;28;20293;-80
2023/01/09 00:14:44;;;;;;;4.03;1.10;;;26.20;99.90;;;;;;5029977;28;20301;-82
2023/01/09 00:17:15;;;;;;;2.55;1.10;;;26.30;99.90;;;;;;5032727;28;20294;-82
2023/01/09 00:19:46;;;;;;;5.28;1.13;;;26.50;99.90;;;;;;5032672;28;20198;-86
2023/01/09 00:22:17;;;;;;;2.60;1.00;;;26.50;99.90;;;;;;5030875;28;20695;-81
2023/01/09 00:24:47;;;;;;;2.90;1.20;;;26.50;99.90;;;;;;5031634;28;20654;-82
2023/01/09 00:27:20;;;;;;;1.83;1.02;;;26.60;99.90;;;;;;5019823;28;20495;-85
2023/01/09 00:29:51;;;;;;;4.20;1.20;;;26.70;99.90;;;;;;5032132;28;20281;-81
2023/01/09 00:32:22;;;;;;;2.58;1.20;;;26.80;99.90;;;;;;5032797;28;20229;-83
2023/01/09 00:34:53;;;;;;;2.88;1.10;;;26.80;99.90;;;;;;5032778;28;20664;-82
2023/01/09 00:37:24;;;;;;;2.92;1.10;;;26.90;99.90;;;;;;5029720;28;20305;-81
2023/01/09 00:39:55;;;;;;;2.78;1.10;;;27.10;99.90;;;;;;5032690;28;20220;-81
2023/01/09 00:42:32;;;;;;;3.33;1.05;;;27.20;99.90;;;;;;5030899;28;20206;-81
2023/01/09 00:45:06;;;;;;;8.07;1.27;;;27.30;99.90;;;;;;5030230;28;20206;-81
2023/01/09 00:47:39;;;;;;;3.58;1.13;;;27.40;99.90;;;;;;5032276;28;20332;-81
2023/01/09 00:50:13;;;;;;;2.30;1.00;;;27.60;99.90;;;;;;5032732;28;20209;-80
2023/01/09 00:52:45;;;;;;;2.40;1.10;;;27.60;99.90;;;;;;5030765;28;20207;-82
2023/01/09 00:55:17;;;;;;;2.47;1.23;;;27.60;99.90;;;;;;5030862;28;20646;-80
2023/01/09 00:57:50;;;;;;;3.22;1.23;;;27.50;99.90;;;;;;5030935;28;20292;-80
2023/01/09 01:00:21;;;;;;;2.72;1.17;;;27.60;99.90;;;;;;5032634;28;20285;-80
2023/01/09 01:02:52;;;;;;;1.88;0.82;;;27.70;99.90;;;;;;5032435;28;20208;-83
2023/01/09 01:08:14;;;;;;;3.38;1.20;;;27.60;99.90;;;;;;5022899;28;20225;-81
2023/01/09 01:10:45;;;;;;;4.20;1.05;;;27.70;99.90;;;;;;5032450;28;20202;-82
2023/01/09 01:13:18;;;;;;;3.88;1.00;;;27.80;99.90;;;;;;5036041;28;20198;-81
2023/01/09 01:15:49;;;;;;;2.63;1.20;;;27.80;99.90;;;;;;5036393;28;20276;-80
2023/01/09 01:18:20;;;;;;;2.75;1.08;;;27.80;99.90;;;;;;5034127;28;20198;-82
2023/01/09 01:20:50;;;;;;;3.83;1.20;;;27.90;99.90;;;;;;5031206;28;20201;-80
2023/01/09 01:23:21;;;;;;;3.03;1.25;;;27.90;99.90;;;;;;5021768;28;20645;-81
2023/01/09 01:25:52;;;;;;;4.53;1.20;;;27.90;99.90;;;;;;5033978;28;20286;-81
2023/01/09 01:28:25;;;;;;;3.35;1.30;;;27.80;99.90;;;;;;5034693;28;20678;-81
2023/01/09 01:30:55;;;;;;;4.43;1.23;;;27.80;99.90;;;;;;5042589;28;20200;-81
2023/01/09 01:33:26;;;;;;;3.33;1.20;;;27.90;99.90;;;;;;5034081;28;20202;-84
2023/01/09 01:36:04;;;;;;;2.47;1.13;;;28.00;99.90;;;;;;5030047;28;20198;-82
2023/01/09 01:38:35;;;;;;;7.88;1.55;;;27.90;99.90;;;;;;5035369;28;20212;-81
2023/01/09 01:41:06;;;;;;;2.92;1.13;;;27.90;99.90;;;;;;5032166;28;20194;-81
2023/01/09 01:43:58;;;;;;;5.05;1.35;;;27.90;99.90;;;;;;5027346;28;20199;-87
2023/01/09 01:46:29;;;;;;;1.75;0.90;;;27.90;99.90;;;;;;5031113;28;20317;-80
2023/01/09 01:49:05;;;;;;;2.35;1.10;;;27.80;99.90;;;;;;5033635;28;20273;-81
2023/01/09 01:51:38;;;;;;;2.55;1.10;;;27.90;99.90;;;;;;5034869;28;20209;-83
2023/01/09 01:54:14;;;;;;;2.40;1.13;;;27.60;99.90;;;;;;5035446;28;20202;-81
2023/01/09 01:56:48;;;;;;;3.42;1.10;;;27.50;99.90;;;;;;5035008;28;20198;-82
2023/01/09 01:59:25;;;;;;;2.88;1.10;;;27.70;99.90;;;;;;5035150;28;20209;-81
2023/01/09 02:01:59;;;;;;;3.90;1.17;;;27.70;99.90;;;;;;5023581;28;20562;-82
2023/01/09 02:04:30;;;;;;;3.83;1.30;;;27.80;99.90;;;;;;5034265;28;20632;-80
2023/01/09 02:07:03;;;;;;;5.78;1.15;;;27.90;99.90;;;;;;5032857;28;20304;-81
2023/01/09 02:09:34;;;;;;;5.65;1.73;;;27.80;99.90;;;;;;5033108;28;20217;-81
2023/01/09 02:12:16;;;;;;;4.00;1.00;;;27.80;99.90;;;;;;5033289;28;20679;-81
2023/01/09 02:14:50;;;;;;;2.65;0.90;;;27.90;99.90;;;;;;5033326;28;20285;-82
2023/01/09 02:17:31;;;;;;;4.45;1.00;;;28.10;99.90;;;;;;5033513;28;20198;-82
2023/01/09 02:20:31;;;;;;;4.47;1.40;;;28.30;99.90;;;;;;5030830;28;20207;-84
2023/01/09 02:23:25;;;;;;;4.13;1.10;;;28.30;99.90;;;;;;5030256;28;20194;-81
2023/01/09 02:26:21;;;;;;;4.47;1.27;;;28.30;99.90;;;;;;5028450;28;20198;-82
2023/01/09 02:29:28;;;;;;;5.00;1.20;;;28.30;99.90;;;;;;5030725;28;20205;-83
2023/01/09 02:32:06;;;;;;;3.13;1.30;;;28.40;99.90;;;;;;5014297;28;20239;-81
2023/01/09 02:34:46;;;;;;;2.97;1.02;;;28.40;99.90;;;;;;5030929;28;20212;-83
2023/01/09 02:37:26;;;;;;;3.03;1.38;;;28.20;99.90;;;;;;5029243;28;20277;-84
2023/01/09 02:40:05;;;;;;;2.55;1.10;;;28.20;99.90;;;;;;5032429;28;20194;-84
2023/01/09 02:42:37;;;;;;;2.75;1.15;;;28.10;99.90;;;;;;5019718;28;20195;-83
2023/01/09 02:45:08;;;;;;;2.75;1.10;;;28.10;99.90;;;;;;5029713;28;20285;-84
2023/01/09 02:47:46;;;;;;;2.63;1.20;;;28.10;99.90;;;;;;5033755;28;20240;-82
2023/01/09 02:50:20;;;;;;;2.38;1.27;;;28.20;99.90;;;;;;5032019;28;20212;-84
2023/01/09 02:53:23;;;;;;;3.85;1.10;;;28.20;99.90;;;;;;5034157;28;20186;-82
2023/01/09 02:56:08;;;;;;;5.35;1.10;;;28.10;99.90;;;;;;5033504;28;20289;-82
2023/01/09 02:58:55;;;;;;;4.70;1.20;;;28.10;99.90;;;;;;5029602;28;20210;-82
2023/01/09 03:01:34;;;;;;;3.78;1.10;;;27.80;99.90;;;;;;5027464;28;20230;-84
2023/01/09 03:04:17;;;;;;;3.53;1.30;;;27.80;99.90;;;;;;5032336;28;20196;-85
2023/01/09 03:06:57;;;;;;;2.25;0.90;;;27.60;99.90;;;;;;5033416;28;20647;-83
2023/01/09 03:09:30;;;;;;;5.90;1.20;;;27.50;99.90;;;;;;5031074;28;20209;-85
2023/01/09 03:12:09;;;;;;;2.88;1.08;;;27.60;99.90;;;;;;5033599;28;20204;-83
2023/01/09 03:14:43;;;;;;;2.85;1.08;;;27.70;99.90;;;;;;5033257;28;20205;-86
2023/01/09 03:17:16;;;;;;;3.05;1.15;;;27.80;99.90;;;;;;5027642;28;20628;-84
2023/01/09 03:19:50;;;;;;;2.90;1.30;;;27.70;99.90;;;;;;5026336;28;20285;-84
2023/01/09 03:22:21;;;;;;;2.50;1.10;;;27.60;99.90;;;;;;5027046;28;20710;-84
2023/01/09 03:24:52;;;;;;;4.20;1.20;;;27.50;99.90;;;;;;5031559;28;20256;-86
2023/01/09 03:27:23;;;;;;;3.08;1.30;;;27.50;99.90;;;;;;5032804;28;20218;-85
2023/01/09 03:29:55;;;;;;;2.50;1.10;;;27.40;99.90;;;;;;5031410;28;20206;-85
2023/01/09 03:32:29;;;;;;;3.60;1.20;;;27.50;99.90;;;;;;5030539;28;20548;-84
2023/01/09 03:35:02;;;;;;;2.17;1.20;;;27.60;99.90;;;;;;5031703;28;20198;-86
2023/01/09 03:37:33;;;;;;;2.80;1.10;;;27.60;99.90;;;;;;5033836;28;20202;-85
2023/01/09 03:40:04;;;;;;;3.42;1.25;;;27.70;99.90;;;;;;5031578;28;20989;-83
2023/01/09 03:42:35;;;;;;;2.70;1.40;;;27.50;99.90;;;;;;5033624;28;20201;-84
2023/01/09 03:45:06;;;;;;;4.85;1.13;;;27.50;99.90;;;;;;5031463;28;20222;-85
2023/01/09 03:47:37;;;;;;;1.92;0.93;;;27.60;99.90;;;;;;5031028;28;20245;-85
2023/01/09 03:50:10;;;;;;;3.92;1.10;;;27.40;99.90;;;;;;5032134;28;20204;-86
2023/01/09 03:52:41;;;;;;;2.95;1.25;;;27.40;99.90;;;;;;5033353;28;20274;-83
2023/01/09 03:55:12;;;;;;;3.20;1.10;;;27.40;99.90;;;;;;5032116;28;20732;-83
2023/01/09 03:57:43;;;;;;;3.80;1.13;;;27.30;99.90;;;;;;5032244;28;20298;-89
2023/01/09 04:00:15;;;;;;;2.55;1.08;;;27.40;99.90;;;;;;5032801;28;20285;-84
2023/01/09 04:02:45;;;;;;;3.45;1.00;;;27.30;99.90;;;;;;5029779;28;20281;-84
2023/01/09 04:05:18;;;;;;;3.38;1.00;;;27.30;99.90;;;;;;5032515;28;20282;-83
2023/01/09 04:07:52;;;;;;;2.80;0.80;;;27.30;99.90;;;;;;5031590;28;20222;-85
2023/01/09 04:10:23;;;;;;;3.35;0.90;;;27.30;99.90;;;;;;5029976;28;20661;-85
2023/01/09 04:12:53;;;;;;;2.50;1.02;;;27.20;99.90;;;;;;5031659;28;20641;-84
2023/01/09 04:15:24;;;;;;;2.47;1.02;;;27.10;99.90;;;;;;5031871;28;20199;-84
2023/01/09 04:17:55;;;;;;;2.65;1.00;;;27.20;99.90;;;;;;5030392;28;20203;-84
2023/01/09 04:20:28;;;;;;;5.55;1.35;;;27.10;99.90;;;;;;5033198;28;20281;-83
2023/01/09 04:22:59;;;;;;;2.83;0.93;;;27.20;99.90;;;;;;5031741;28;20285;-83
2023/01/09 04:25:30;;;;;;;2.80;0.80;;;27.20;99.90;;;;;;5029297;28;20198;-85
2023/01/09 04:28:01;;;;;;;3.25;1.00;;;27.10;99.90;;;;;;5029671;28;20719;-84
2023/01/09 04:30:32;;;;;;;3.28;1.10;;;27.10;99.90;;;;;;5041943;28;20207;-84
2023/01/09 04:33:02;;;;;;;4.80;1.00;;;27.10;99.90;;;;;;5032624;28;20289;-84
2023/01/09 04:35:36;;;;;;;2.85;1.13;;;27.10;99.90;;;;;;5029850;28;20701;-85
2023/01/09 04:38:06;;;;;;;2.33;0.90;;;27.00;99.90;;;;;;5032914;28;20229;-85
2023/01/09 04:40:37;;;;;;;4.43;1.00;;;26.90;99.90;;;;;;5032911;28;20217;-82
2023/01/09 04:43:08;;;;;;;5.03;1.48;;;26.90;99.90;;;;;;5029281;28;20195;-84
2023/01/09 04:45:39;;;;;;;3.10;1.10;;;26.80;99.90;;;;;;5030043;28;20655;-83
2023/01/09 04:48:10;;;;;;;4.22;1.20;;;26.80;99.90;;;;;;5033116;28;20240;-84
2023/01/09 04:50:42;;;;;;;2.47;1.00;;;26.70;99.90;;;;;;5034058;28;20289;-79
2023/01/09 04:53:13;;;;;;;2.67;1.20;;;26.70;99.90;;;;;;5036828;28;20198;-84
2023/01/09 04:55:44;;;;;;;3.97;0.88;;;26.70;99.90;;;;;;5036733;28;20286;-82
2023/01/09 04:58:15;;;;;;;3.72;0.90;;;26.70;99.90;;;;;;5033541;28;20194;-84
2023/01/09 05:00:45;;;;;;;2.03;1.05;;;26.60;99.90;;;;;;5033753;28;20204;-82
2023/01/09 05:03:16;;;;;;;3.78;1.23;;;26.60;99.90;;;;;;5032743;28;20198;-83
2023/01/09 05:05:49;;;;;;;2.42;1.00;;;26.50;99.90;;;;;;5035577;28;20194;-85
2023/01/09 05:08:20;;;;;;;3.00;1.10;;;26.40;99.90;;;;;;5034716;28;20764;-81
2023/01/09 05:10:51;;;;;;;3.65;0.90;;;26.40;99.90;;;;;;5036101;28;20568;-84
2023/01/09 05:13:21;;;;;;;2.38;0.90;;;26.40;99.90;;;;;;5036629;28;20222;-82
2023/01/09 05:15:52;;;;;;;1.95;1.15;;;26.40;99.90;;;;;;5036359;28;20194;-84
2023/01/09 05:18:23;;;;;;;2.63;1.05;;;26.40;99.90;;;;;;5036325;28;20736;-82
2023/01/09 05:20:56;;;;;;;2.08;0.95;;;26.30;99.90;;;;;;5031770;28;20194;-78
2023/01/09 05:23:27;;;;;;;2.83;0.93;;;26.30;99.90;;;;;;5036328;28;20281;-82
2023/01/09 05:25:57;;;;;;;2.85;0.90;;;26.40;99.90;;;;;;5034383;28;20286;-84
2023/01/09 05:28:28;;;;;;;2.58;0.90;;;26.50;99.90;;;;;;5036145;28;20308;-82
2023/01/09 05:30:59;;;;;;;2.67;1.00;;;26.40;99.90;;;;;;5036085;28;20186;-86
2023/01/09 05:33:30;;;;;;;2.47;1.02;;;26.50;99.90;;;;;;5036020;28;20194;-84
2023/01/09 05:36:02;;;;;;;2.28;0.85;;;26.40;99.90;;;;;;5034297;28;20270;-84
2023/01/09 05:38:33;;;;;;;3.58;0.90;;;26.30;99.90;;;;;;5030569;28;20198;-82
2023/01/09 05:41:06;;;;;;;1.45;0.80;;;26.30;99.90;;;;;;5031809;28;20281;-85
2023/01/09 05:43:37;;;;;;;3.80;1.20;;;26.20;99.90;;;;;;5015925;28;20195;-83
2023/01/09 05:46:08;;;;;;;4.05;1.00;;;26.20;99.90;;;;;;5016098;28;20305;-82
2023/01/09 05:48:39;;;;;;;3.53;0.90;;;26.20;99.90;;;;;;5016569;28;20242;-82
2023/01/09 05:51:12;;;;;;;1.30;0.88;;;26.20;99.90;;;;;;5035927;28;20561;-81
2023/01/09 05:53:42;;;;;;;2.55;1.00;;;26.20;99.90;;;;;;5033057;28;20649;-82
2023/01/09 05:56:13;;;;;;;3.67;1.20;;;26.20;99.90;;;;;;5032834;28;20197;-83
2023/01/09 05:58:44;;;;;;;2.13;0.90;;;26.30;99.90;;;;;;5026732;28;20616;-81
2023/01/09 06:01:15;;;;;;;3.80;0.93;;;26.40;99.90;;;;;;5030821;28;20297;-84
2023/01/09 06:03:46;;;;;;;2.72;0.75;;;26.30;99.90;;;;;;5034411;28;20675;-82
2023/01/09 06:06:18;;;;;;;2.25;0.90;;;26.20;99.90;;;;;;5032773;28;20232;-78
2023/01/09 06:08:49;;;;;;;2.90;1.00;;;26.10;99.90;;;;;;5030129;28;20214;-79
2023/01/09 06:11:20;;;;;;;2.53;1.00;;;26.10;99.90;;;;;;5033520;28;20281;-79
2023/01/09 06:13:51;;;;;;;2.28;0.93;;;25.90;99.90;;;;;;5033884;28;20568;-78
2023/01/09 06:16:24;;;;;;;2.67;1.00;;;25.70;99.90;;;;;;5034923;28;20281;-83
2023/01/09 06:18:55;;;;;;;4.60;1.20;;;25.60;99.90;;;;;;5029905;28;20202;-77
2023/01/09 06:21:28;;;;;;;5.07;1.00;;;25.60;99.90;;;;;;5030077;28;20195;-78
2023/01/09 06:23:59;;;;;;;3.97;1.13;;;25.60;99.90;;;;;;5034941;28;20557;-85
2023/01/09 06:26:30;;;;;;;0.80;0.75;;;25.60;99.90;;;;;;5033848;28;20249;-82
2023/01/09 06:29:00;;;;;;;3.35;1.10;;;25.60;99.90;;;;;;5032259;28;20220;-83
2023/01/09 06:31:31;;;;;;;3.10;0.98;;;25.60;99.90;;;;;;5030616;28;20562;-82
2023/01/09 06:34:02;;;;;;;1.95;0.90;;;25.50;99.90;;;;;;5032318;28;20277;-85
2023/01/09 06:36:35;;;;;;;2.92;1.00;;;25.50;99.90;;;;;;5027864;28;20202;-82
2023/01/09 06:39:06;;;;;;;3.85;1.20;;;25.50;99.90;;;;;;5019033;28;20201;-83
2023/01/09 06:41:36;;;;;;;1.58;1.00;;;25.40;99.90;;;;;;5034602;28;20195;-82
2023/01/09 06:44:07;;;;;;;3.25;0.90;;;25.40;99.90;;;;;;5030371;28;20307;-84
2023/01/09 06:46:38;;;;;;;3.30;0.98;;;25.30;99.90;;;;;;5031049;28;20579;-82
2023/01/09 06:49:10;;;;;;;3.83;1.02;;;25.20;99.90;;;;;;5031616;28;20928;-84
2023/01/09 06:51:43;;;;;;;3.20;1.10;;;25.20;99.90;;;;;;5034608;28;20733;-86
2023/01/09 06:54:14;;;;;;;4.75;0.80;;;25.20;99.90;;;;;;5026322;28;20198;-84
2023/01/09 06:56:45;;;;;;;0.75;0.70;;;25.20;99.90;;;;;;5030369;28;21396;-83
2023/01/09 06:59:15;;;;;;;2.78;0.90;;;25.10;99.90;;;;;;5034355;28;20198;-85
2023/01/09 07:01:46;;;;;;;4.80;2.28;;;25.10;99.90;;;;;;5031836;28;20285;-89
2023/01/09 07:04:20;;;;;;;3.85;1.95;;;25.10;99.90;;;;;;5033750;28;20233;-84
2023/01/09 07:06:56;;;;;;;1.85;0.90;;;25.00;99.90;;;;;;5037532;28;20202;-86
2023/01/09 07:09:27;;;;;;;2.50;1.17;;;25.00;99.90;;;;;;5032402;28;20222;-84
2023/01/09 07:11:57;;;;;;;2.70;0.82;;;24.90;99.90;;;;;;5032450;28;20222;-83
2023/01/09 07:14:28;;;;;;;2.05;0.80;;;24.80;99.90;;;;;;5028483;28;20195;-82
2023/01/09 07:16:59;;;;;;;3.92;1.20;;;24.80;99.90;;;;;;5023779;28;20703;-86
2023/01/09 07:19:30;;;;;;;1.73;0.80;;;24.80;99.90;;;;;;5027942;28;20285;-88
2023/01/09 07:22:03;;;;;;;2.08;0.80;;;24.70;99.90;;;;;;5036934;28;20202;-83
2023/01/09 07:24:34;;;;;;;1.85;0.80;;;24.60;99.90;;;;;;5032318;28;20194;-83
2023/01/09 07:27:05;;;;;;;3.83;1.00;;;24.40;99.90;;;;;;5033801;28;20289;-85
2023/01/09 07:29:36;;;;;;;2.03;0.90;;;24.40;99.90;;;;;;5032372;28;20222;-84
2023/01/09 07:32:06;;;;;;;3.22;0.90;;;24.40;99.90;;;;;;5046287;28;20277;-83
2023/01/09 07:34:37;;;;;;;3.22;1.10;;;24.40;99.90;;;;;;5029199;28;20286;-84
2023/01/09 07:37:10;;;;;;;2.83;0.88;;;24.40;99.90;;;;;;5031900;28;20277;-83
2023/01/09 07:39:41;;;;;;;5.50;1.17;;;24.30;99.90;;;;;;5032688;28;20289;-84
2023/01/09 07:42:12;;;;;;;3.17;1.00;;;24.30;99.90;;;;;;5031321;28;20261;-85
2023/01/09 07:44:42;;;;;;;3.30;0.90;;;24.30;99.90;;;;;;5028789;28;20276;-84
2023/01/09 07:47:13;;;;;;;4.22;1.00;;;24.30;99.90;;;;;;5026526;28;20237;-84
2023/01/09 07:49:44;;;;;;;2.28;1.10;;;24.30;99.90;;;;;;5021787;28;20224;-83
2023/01/09 07:52:17;;;;;;;3.53;1.25;;;24.30;99.90;;;;;;5022190;28;20277;-85
2023/01/09 07:54:47;;;;;;;2.42;0.90;;;24.30;99.90;;;;;;5024373;28;20200;-87
2023/01/09 07:57:18;;;;;;;3.00;0.90;;;24.30;99.90;;;;;;5024430;28;20286;-83
2023/01/09 07:59:49;;;;;;;3.10;1.00;;;24.30;99.90;;;;;;5030956;28;20289;-82
2023/01/09 08:02:20;;;;;;;1.50;0.90;;;24.30;99.90;;;;;;5030138;28;20654;-86
2023/01/09 08:04:51;;;;;;;1.52;0.68;;;24.20;99.90;;;;;;5031159;28;20282;-82
2023/01/09 08:07:23;;;;;;;1.27;0.98;;;24.30;99.90;;;;;;5029693;28;20190;-83
2023/01/09 08:09:54;;;;;;;6.40;1.48;;;24.30;99.90;;;;;;5031734;28;20226;-84
2023/01/09 08:12:25;;;;;;;1.88;0.75;;;24.40;99.90;;;;;;5030771;28;20216;-84
2023/01/09 08:14:56;;;;;;;3.35;1.10;;;24.30;99.90;;;;;;5027845;28;20289;-83
2023/01/09 08:17:26;;;;;;;4.35;1.00;;;24.30;99.90;;;;;;5022888;28;20198;-83
2023/01/09 08:19:57;;;;;;;1.25;0.88;;;24.40;99.90;;;;;;5027704;28;20744;-83
2023/01/09 08:22:30;;;;;;;2.75;0.90;;;24.20;99.90;;;;;;5030789;28;20194;-82
2023/01/09 08:25:01;;;;;;;2.72;0.80;;;24.20;99.90;;;;;;5024044;28;20676;-83
2023/01/09 08:27:31;;;;;;;1.75;0.80;;;24.20;99.90;;;;;;5027622;28;20209;-82
2023/01/09 08:30:02;;;;;;;3.03;0.82;;;24.20;99.90;;;;;;5030356;28;20224;-82
2023/01/09 08:32:33;;;;;;;1.92;0.75;;;24.10;99.90;;;;;;5030961;28;20313;-83
2023/01/09 08:35:04;;;;;;;2.17;0.70;;;24.00;99.90;;;;;;5030131;28;20281;-82
2023/01/09 08:37:37;;;;;;;1.02;0.85;;;23.90;99.90;;;;;;5021554;28;20292;-83
2023/01/09 08:40:08;;;;;;;2.83;1.00;;;23.80;99.90;;;;;;5029331;28;20194;-83
2023/01/09 08:48:12;;;;;;;4.15;0.88;;;23.50;99.90;;;;;;5032484;28;20347;-82
2023/01/09 08:50:43;;;;;;;1.58;0.70;;;23.40;99.90;;;;;;5030850;28;20202;-84
2023/01/09 08:53:16;;;;;;;1.77;0.90;;;23.30;99.90;;;;;;5031600;28;20281;-83
2023/01/09 08:55:47;;;;;;;1.65;0.90;;;23.20;99.90;;;;;;5032615;28;20210;-82
2023/01/09 08:58:17;;;;;;;2.25;0.85;;;23.20;99.90;;;;;;5027311;28;20194;-83
2023/01/09 09:00:48;;;;;;;1.98;0.80;;;23.10;99.90;;;;;;5029946;28;20292;-82
2023/01/09 09:03:20;;;;;;;2.17;0.80;;;23.00;99.90;;;;;;5029656;28;20202;-83
2023/01/09 09:05:51;;;;;;;1.83;0.80;;;22.90;99.90;;;;;;5027109;28;20244;-82
2023/01/09 09:08:23;;;;;;;2.72;0.80;;;22.80;99.90;;;;;;5031141;28;20751;-83
2023/01/09 09:10:56;;;;;;;2.28;0.93;;;22.80;99.90;;;;;;5027727;28;20201;-82
2023/01/09 09:13:26;;;;;;;3.60;0.80;;;22.70;99.90;;;;;;5027279;28;20207;-82
2023/01/09 09:15:57;;;;;;;1.67;0.98;;;22.70;99.90;;;;;;5029252;28;20637;-81
2023/01/09 09:18:28;;;;;;;2.22;0.93;;;22.60;99.90;;;;;;5031413;28;20281;-82
2023/01/09 09:21:02;;;;;;;2.35;0.90;;;22.50;99.90;;;;;;5030204;28;20206;-82
2023/01/09 09:23:34;;;;;;;2.75;0.98;;;22.50;99.90;;;;;;5027990;28;20212;-83
2023/01/09 09:26:06;;;;;;;1.98;0.98;;;22.50;99.90;;;;;;5030873;28;20665;-81
2023/01/09 09:28:37;;;;;;;3.33;0.95;;;22.50;99.90;;;;;;5029542;28;20285;-83
2023/01/09 09:31:08;;;;;;;1.02;0.88;;;22.40;99.90;;;;;;5033781;28;20303;-82
2023/01/09 09:33:39;;;;;;;1.98;0.85;;;22.40;99.90;;;;;;5031263;28;20729;-82
2023/01/09 09:36:10;;;;;;;2.20;0.90;;;22.40;99.90;;;;;;5033654;28;20214;-82
2023/01/09 09:38:43;;;;;;;1.92;0.70;;;22.30;99.90;;;;;;5030372;28;20736;-83
2023/01/09 09:44:46;;;;;;;2.70;0.90;;;22.20;99.90;;;;;;5033951;28;20197;-83
2023/01/09 09:47:31;;;;;;;1.80;0.90;;;22.20;99.90;;;;;;5026633;28;20242;-83
2023/01/09 09:50:12;;;;;;;1.83;1.00;;;22.10;99.90;;;;;;5045398;28;20220;-83
2023/01/09 09:52:51;;;;;;;2.00;0.77;;;22.10;99.90;;;;;;5033363;28;20282;-83
2023/01/09 09:55:31;;;;;;;1.50;0.90;;;22.10;99.90;;;;;;5031827;28;20205;-82
2023/01/09 09:58:04;;;;;;;2.42;1.10;;;22.00;99.90;;;;;;5032956;28;20221;-82
2023/01/09 10:00:35;;;;;;;1.83;1.00;;;22.00;99.90;;;;;;5035008;28;20296;-82
2023/01/09 10:03:10;;;;;;;3.05;1.02;;;22.00;99.90;;;;;;5033291;28;20617;-82
2023/01/09 10:05:44;;;;;;;2.08;0.98;;;22.00;99.90;;;;;;5034210;28;20292;-81
2023/01/09 10:08:25;;;;;;;1.60;0.90;;;21.90;99.90;;;;;;5031833;28;20289;-82
2023/01/09 10:10:58;;;;;;;1.45;0.70;;;21.90;99.90;;;;;;5034245;28;20283;-81
2023/01/09 10:16:27;;;;;;;4.40;0.73;;;21.90;99.90;;;;;;5028860;28;20193;-82
2023/01/09 10:19:07;;;;;;;2.42;0.82;;;21.90;99.90;;;;;;5033874;28;20213;-82
2023/01/09 10:21:44;;;;;;;1.00;0.60;;;21.90;99.90;;;;;;5034476;28;20713;-82
2023/01/09 10:24:35;;;;;;;1.45;0.68;;;21.90;99.90;;;;;;5034557;28;20264;-81
2023/01/09 10:27:22;;;;;;;1.38;0.80;;;21.80;99.90;;;;;;5037425;28;20281;-82
2023/01/09 10:30:04;;;;;;;1.55;0.70;;;21.80;99.90;;;;;;5032995;28;20304;-82
2023/01/09 10:32:51;;;;;;;1.95;0.80;;;21.70;99.90;;;;;;5025772;28;20202;-80
2023/01/09 10:35:54;;;;;;;1.38;0.60;;;21.70;99.90;;;;;;5031898;28;20201;-80
2023/01/09 10:38:30;;;;;;;1.58;0.80;;;21.70;99.90;;;;;;5025750;28;20193;-81
2023/01/09 10:41:06;;;;;;;2.20;0.80;;;21.60;99.90;;;;;;5034065;28;20204;-81
2023/01/09 10:43:44;;;;;;;1.77;0.80;;;21.60;99.90;;;;;;5033303;28;20194;-82
2023/01/09 10:46:19;;;;;;;1.83;0.90;;;21.60;99.90;;;;;;5033362;28;20293;-81
2023/01/09 10:48:55;;;;;;;1.70;0.90;;;21.60;99.90;;;;;;5030702;28;20243;-87
2023/01/09 10:51:33;;;;;;;0.70;0.70;;;21.50;99.90;;;;;;5024214;28;20286;-87
2023/01/09 10:54:04;;;;;;;1.48;0.90;;;21.50;99.90;;;;;;5031730;28;20236;-83
2023/01/09 10:56:41;;;;;;;3.38;0.82;;;21.50;99.90;;;;;;5032105;28;20200;-82
2023/01/09 10:59:14;;;;;;;2.22;0.70;;;21.50;99.90;;;;;;5031084;28;20202;-82
2023/01/09 11:01:45;;;;;;;1.67;0.60;;;21.40;99.90;;;;;;5034189;28;20190;-82
2023/01/09 11:04:25;;;;;;;2.95;0.90;;;21.40;99.90;;;;;;5032086;28;20313;-82
2023/01/09 11:07:01;;;;;;;0.80;0.80;;;21.40;99.90;;;;;;5033047;28;20280;-82
2023/01/09 11:09:59;;;;;;;2.95;1.10;;;21.40;99.90;;;;;;5034311;28;20239;-82
2023/01/09 11:12:31;;;;;;;2.63;0.90;;;21.40;99.90;;;;;;5033064;28;20280;-81
2023/01/09 11:15:32;;;;;;;1.77;1.00;;;21.30;99.90;;;;;;5032156;28;20205;-82
2023/01/09 11:18:25;;;;;;;2.00;0.90;;;21.30;99.90;;;;;;5034294;28;20297;-81
2023/01/09 11:20:56;;;;;;;2.55;1.15;;;21.30;99.90;;;;;;5033939;28;20202;-82
2023/01/09 11:23:29;;;;;;;2.60;1.02;;;21.30;99.90;;;;;;5032942;28;20198;-82
2023/01/09 11:26:02;;;;;;;2.75;1.17;;;21.20;99.90;;;;;;5032990;28;20198;-82
2023/01/09 11:28:33;;;;;;;2.78;1.00;;;21.20;99.90;;;;;;5034033;28;20222;-81
2023/01/09 11:31:05;;;;;;;5.53;1.30;;;21.20;99.90;;;;;;5030606;28;20216;-82
2023/01/09 11:33:42;;;;;;;1.40;1.00;;;21.20;99.90;;;;;;5022953;28;20234;-82
2023/01/09 11:36:17;;;;;;;1.98;1.10;;;21.20;99.90;;;;;;5032417;28;20228;-82
2023/01/09 11:38:51;;;;;;;2.45;1.00;;;21.20;99.90;;;;;;5033847;28;20200;-82
2023/01/09 11:41:24;;;;;;;1.83;0.95;;;21.10;99.90;;;;;;5033689;28;20631;-83
2023/01/09 11:43:58;;;;;;;1.48;1.08;;;21.10;99.90;;;;;;5031194;28;20198;-81
2023/01/09 11:46:42;;;;;;;2.58;1.13;;;21.10;99.90;;;;;;5029945;28;20198;-81
2023/01/09 11:49:25;;;;;;;2.80;1.10;;;21.10;99.90;;;;;;5033272;28;20190;-82
2023/01/09 11:52:18;;;;;;;3.00;1.05;;;21.10;99.90;;;;;;5030249;28;20202;-81
2023/01/09 11:54:51;;;;;;;2.20;0.90;;;21.10;99.90;;;;;;5032146;28;20222;-81
2023/01/09 11:57:24;;;;;;;3.33;1.05;;;21.00;99.90;;;;;;5030821;28;20289;-80
2023/01/09 11:59:57;;;;;;;2.22;1.08;;;21.00;99.90;;;;;;5027205;28;20198;-82
2023/01/09 12:02:49;;;;;;;2.75;1.13;;;21.00;99.90;;;;;;5032237;28;20191;-81
2023/01/09 12:05:31;;;;;;;2.55;1.13;;;21.00;99.90;;;;;;5019496;28;20194;-83
2023/01/09 12:08:16;;;;;;;3.53;1.20;;;21.00;99.90;;;;;;5030397;28;20200;-81
2023/01/09 12:11:05;;;;;;;1.77;0.88;;;21.00;99.90;;;;;;5027520;28;20229;-81
2023/01/09 12:14:00;;;;;;;2.13;1.00;;;21.00;99.90;;;;;;5025928;28;20190;-81
2023/01/09 12:16:37;;;;;;;4.22;1.15;;;21.00;99.90;;;;;;5033152;28;20277;-81
2023/01/09 12:19:39;;;;;;;2.80;1.20;;;21.00;99.90;;;;;;5033061;28;20196;-82
2023/01/09 12:22:18;;;;;;;2.85;1.05;;;20.90;99.90;;;;;;5033480;28;20185;-82
2023/01/09 12:25:08;;;;;;;2.63;1.17;;;20.90;99.90;;;;;;5033050;28;20209;-81
2023/01/09 12:28:01;;;;;;;3.67;1.15;;;20.90;99.90;;;;;;5031955;28;20634;-82
2023/01/09 12:30:53;;;;;;;2.25;1.00;;;20.90;99.90;;;;;;5032728;28;20300;-81
2023/01/09 12:33:38;;;;;;;3.10;1.20;;;20.90;99.90;;;;;;5033254;28;20197;-81
2023/01/09 12:36:24;;;;;;;1.98;1.23;;;20.80;99.90;;;;;;5013281;28;20278;-82
2023/01/09 12:39:02;;;;;;;3.42;1.45;;;20.80;99.90;;;;;;5021453;28;20194;-81
2023/01/09 12:41:52;;;;;;;3.30;1.63;;;20.80;99.90;;;;;;5032943;28;20216;-82
2023/01/09 12:44:48;;;;;;;2.85;1.20;;;20.80;99.90;;;;;;5033007;28;20277;-82
2023/01/09 12:47:44;;;;;;;1.90;1.20;;;20.80;99.90;;;;;;5031563;28;20233;-82
2023/01/09 12:50:50;;;;;;;2.30;1.25;;;20.80;99.90;;;;;;5031493;28;20222;-81
2023/01/09 12:53:26;;;;;;;2.20;1.10;;;20.70;99.90;;;;;;5009515;28;20245;-81
2023/01/09 12:56:05;;;;;;;2.42;1.10;;;20.70;99.90;;;;;;5031390;28;20290;-81
2023/01/09 12:58:43;;;;;;;3.20;1.20;;;20.60;99.90;;;;;;5032302;28;20200;-82
2023/01/09 13:01:20;;;;;;;1.25;0.95;;;20.60;99.90;;;;;;5032904;28;20569;-81
2023/01/09 13:03:58;;;;;;;1.45;1.10;;;20.60;99.90;;;;;;5035191;28;20280;-81
2023/01/09 13:06:30;;;;;;;2.65;1.17;;;20.60;99.90;;;;;;5036607;28;20196;-82
2023/01/09 13:09:14;;;;;;;3.88;0.95;;;20.50;99.90;;;;;;5036620;28;20284;-81
2023/01/09 13:11:50;;;;;;;1.60;0.98;;;20.50;99.90;;;;;;5036261;28;20214;-81
2023/01/09 13:14:26;;;;;;;2.40;1.05;;;20.50;99.90;;;;;;5036145;28;20281;-81
2023/01/09 13:16:59;;;;;;;1.42;0.82;;;20.50;99.90;;;;;;5036697;28;20190;-82
2023/01/09 13:19:34;;;;;;;1.25;0.82;;;20.40;99.90;;;;;;5034321;28;20191;-81
2023/01/09 13:22:09;;;;;;;4.03;1.08;;;20.40;99.90;;;;;;5034458;28;20228;-80
2023/01/09 13:24:55;;;;;;;0.85;0.80;;;20.40;99.90;;;;;;5035770;28;20712;-81
2023/01/09 13:27:28;;;;;;;1.35;0.80;;;20.40;99.90;;;;;;5035054;28;20212;-81
2023/01/09 13:30:08;;;;;;;2.15;0.82;;;20.40;99.90;;;;;;5035889;28;20596;-81
2023/01/09 13:32:50;;;;;;;0.77;0.60;;;20.40;99.90;;;;;;5036135;28;20244;-81
2023/01/09 13:35:21;;;;;;;2.20;1.00;;;20.40;99.90;;;;;;5036037;28;20190;-81
2023/01/09 13:37:54;;;;;;;0.90;0.80;;;20.30;99.90;;;;;;5032947;28;20602;-80
2023/01/09 13:40:33;;;;;;;1.02;0.70;;;20.30;99.90;;;;;;5036137;28;20297;-81
2023/01/09 13:43:08;;;;;;;2.10;0.73;;;20.30;99.90;;;;;;5035381;28;20229;-80